Time;durP1;ratioP1;P1;durP2;ratioP2;P2;SDS_P1;SDS_P2;PMS_P1;PMS_P2;Temp;Humidity;BMP_temperature;BMP_pressure;BME280_temperature;BME280_humidity;BME280_pressure;Samples;Min_cycle;Max_cycle;Signal;HPM_P1;HPM_P2
2023/08/27 00:02:21;;;;;;;22.63;20.27;;;23.00;63.60;;;;;;5114928;28;20215;-85
2023/08/27 00:04:48;;;;;;;23.15;20.75;;;23.00;63.60;;;;;;5081190;28;20190;-85
2023/08/27 00:07:15;;;;;;;22.55;20.42;;;23.00;63.90;;;;;;5081151;28;20267;-85
2023/08/27 00:09:43;;;;;;;21.02;18.85;;;23.00;63.80;;;;;;5081260;28;20182;-85
2023/08/27 00:12:10;;;;;;;20.83;18.88;;;23.00;63.80;;;;;;5081130;28;20326;-84
2023/08/27 00:14:37;;;;;;;21.27;18.95;;;23.00;63.80;;;;;;5081050;28;20179;-85
2023/08/27 00:17:05;;;;;;;19.77;17.85;;;23.00;63.90;;;;;;5080984;28;20255;-85
2023/08/27 00:19:34;;;;;;;19.27;17.27;;;23.00;63.90;;;;;;5081113;28;20183;-85
2023/08/27 00:22:01;;;;;;;20.30;18.40;;;22.90;63.90;;;;;;5072711;28;20222;-84
2023/08/27 00:24:28;;;;;;;19.23;17.30;;;23.00;63.90;;;;;;5065240;28;20198;-85
2023/08/27 00:26:55;;;;;;;18.83;17.02;;;22.90;63.80;;;;;;5096067;28;20248;-85
2023/08/27 00:29:23;;;;;;;18.75;16.90;;;22.90;63.80;;;;;;5073732;28;20195;-84
2023/08/27 00:31:50;;;;;;;17.88;16.25;;;22.90;63.90;;;;;;5056830;28;20218;-84
2023/08/27 00:34:17;;;;;;;16.65;15.05;;;22.90;63.70;;;;;;5040644;28;20228;-84
2023/08/27 00:36:46;;;;;;;17.27;15.57;;;22.90;63.90;;;;;;5056990;28;20199;-84
2023/08/27 00:39:13;;;;;;;16.02;14.63;;;22.90;64.00;;;;;;5057000;28;20202;-84
2023/08/27 00:41:40;;;;;;;14.35;13.05;;;22.90;63.90;;;;;;5040601;28;20313;-84
2023/08/27 00:44:07;;;;;;;15.52;13.93;;;22.90;63.90;;;;;;5073815;28;20273;-84
2023/08/27 00:46:35;;;;;;;14.60;13.18;;;22.90;64.00;;;;;;5073301;28;20197;-84
2023/08/27 00:49:02;;;;;;;14.43;13.02;;;22.90;64.00;;;;;;5074627;28;20199;-84
2023/08/27 00:51:30;;;;;;;13.70;12.40;;;22.90;64.00;;;;;;5057564;28;20214;-84
2023/08/27 00:53:58;;;;;;;12.98;11.77;;;22.90;64.20;;;;;;5057072;28;20191;-84
2023/08/27 00:56:26;;;;;;;12.43;11.27;;;22.90;64.20;;;;;;5056923;28;20647;-84
2023/08/27 00:58:54;;;;;;;12.73;11.43;;;22.80;64.20;;;;;;5062145;28;20187;-84
2023/08/27 01:01:22;;;;;;;13.27;11.23;;;22.90;64.30;;;;;;5073067;28;20229;-84
2023/08/27 01:03:49;;;;;;;11.65;10.65;;;22.80;64.30;;;;;;5073078;28;20286;-84
2023/08/27 01:06:16;;;;;;;11.48;10.48;;;22.80;64.30;;;;;;5056147;28;20201;-84
2023/08/27 01:08:47;;;;;;;11.88;10.27;;;22.80;64.50;;;;;;5056843;28;20206;-84
2023/08/27 01:11:20;;;;;;;10.27;9.27;;;22.80;64.50;;;;;;5057080;28;20234;-84
2023/08/27 01:13:50;;;;;;;10.55;9.65;;;22.80;64.50;;;;;;5056316;28;20252;-84
2023/08/27 01:16:17;;;;;;;10.88;9.80;;;22.80;64.50;;;;;;5056267;28;20198;-84
2023/08/27 01:18:45;;;;;;;9.73;8.90;;;22.80;64.60;;;;;;5056075;28;20199;-84
2023/08/27 01:21:21;;;;;;;8.98;8.18;;;22.80;64.60;;;;;;5073665;28;20213;-84
2023/08/27 01:23:48;;;;;;;8.73;8.02;;;22.80;64.70;;;;;;5072718;28;20637;-84
2023/08/27 01:26:18;;;;;;;9.02;8.23;;;22.80;64.70;;;;;;5055685;28;20199;-84
2023/08/27 01:28:46;;;;;;;8.95;8.05;;;22.80;64.80;;;;;;5072159;28;20191;-84
2023/08/27 01:31:17;;;;;;;8.45;7.20;;;22.80;64.70;;;;;;5055592;28;20222;-84
2023/08/27 01:33:45;;;;;;;9.15;7.63;;;22.80;64.80;;;;;;5058001;28;20202;-84
2023/08/27 01:36:12;;;;;;;9.95;7.63;;;22.80;65.70;;;;;;5094026;28;20195;-85
2023/08/27 01:38:41;;;;;;;7.88;7.07;;;22.80;64.90;;;;;;5059895;28;20256;-84
2023/08/27 01:41:08;;;;;;;8.77;7.30;;;22.80;64.90;;;;;;5060004;28;20223;-85
2023/08/27 01:43:36;;;;;;;7.57;6.82;;;22.80;64.90;;;;;;5060053;28;20218;-84
2023/08/27 01:46:03;;;;;;;7.95;6.90;;;22.80;64.90;;;;;;5059780;28;20202;-85
2023/08/27 01:48:30;;;;;;;7.53;6.70;;;22.80;65.00;;;;;;5059284;28;20222;-84
2023/08/27 01:50:58;;;;;;;6.50;6.00;;;22.80;65.10;;;;;;5061702;28;20218;-85
2023/08/27 01:53:26;;;;;;;7.03;6.43;;;22.80;65.10;;;;;;5078250;28;20245;-84
2023/08/27 01:55:55;;;;;;;7.57;6.13;;;22.80;65.10;;;;;;5059452;28;20264;-84
2023/08/27 01:58:23;;;;;;;6.13;5.55;;;22.70;65.10;;;;;;5059308;28;20198;-84
2023/08/27 02:00:50;;;;;;;6.35;5.75;;;22.80;65.20;;;;;;5059013;28;20264;-84
2023/08/27 02:03:19;;;;;;;6.60;5.35;;;22.80;65.20;;;;;;5077654;28;20257;-84
2023/08/27 02:05:48;;;;;;;6.00;5.43;;;22.70;65.10;;;;;;5059878;28;20281;-84
2023/08/27 02:08:15;;;;;;;5.53;4.97;;;22.80;65.30;;;;;;5075579;28;20199;-84
2023/08/27 02:10:43;;;;;;;5.80;5.30;;;22.80;65.30;;;;;;5075668;28;20631;-84
2023/08/27 02:13:12;;;;;;;5.88;5.28;;;22.70;65.20;;;;;;5059577;28;20195;-84
2023/08/27 02:15:39;;;;;;;7.93;5.32;;;22.70;65.30;;;;;;5059338;28;20225;-84
2023/08/27 02:18:06;;;;;;;5.90;5.32;;;22.80;65.50;;;;;;5059642;28;20222;-85
2023/08/27 02:20:34;;;;;;;5.70;4.82;;;22.70;65.30;;;;;;5058933;28;20588;-85
2023/08/27 02:23:03;;;;;;;5.43;4.93;;;22.80;65.60;;;;;;5059748;28;20215;-85
2023/08/27 02:25:31;;;;;;;6.93;4.80;;;22.80;65.50;;;;;;5059586;28;20199;-84
2023/08/27 02:27:58;;;;;;;5.45;4.95;;;22.70;65.50;;;;;;5059307;28;20570;-84
2023/08/27 02:30:27;;;;;;;5.60;5.10;;;22.70;65.50;;;;;;5075530;28;20214;-85
2023/08/27 02:32:54;;;;;;;5.20;4.85;;;22.70;65.60;;;;;;5076030;28;20195;-84
2023/08/27 02:35:21;;;;;;;5.63;5.03;;;22.80;65.60;;;;;;5059005;28;20195;-84
2023/08/27 02:37:49;;;;;;;5.00;4.40;;;22.70;65.60;;;;;;5058788;28;20209;-84
2023/08/27 02:40:17;;;;;;;4.70;4.30;;;22.70;65.60;;;;;;5058961;28;20732;-84
2023/08/27 02:42:45;;;;;;;5.05;4.28;;;22.70;65.70;;;;;;5075018;28;20230;-84
2023/08/27 02:45:12;;;;;;;4.95;4.20;;;22.70;65.70;;;;;;5057835;28;20202;-84
2023/08/27 02:47:41;;;;;;;4.72;4.32;;;22.70;65.70;;;;;;5042594;28;20194;-84
2023/08/27 02:50:09;;;;;;;4.88;4.47;;;22.60;65.60;;;;;;5058506;28;20203;-84
2023/08/27 02:52:36;;;;;;;4.50;4.10;;;22.70;65.80;;;;;;5041938;28;20194;-84
2023/08/27 02:55:03;;;;;;;4.70;4.30;;;22.70;65.90;;;;;;5075023;28;20206;-84
2023/08/27 02:57:30;;;;;;;4.43;3.90;;;22.70;65.80;;;;;;5076251;28;20285;-84
2023/08/27 02:59:57;;;;;;;4.57;4.07;;;22.70;65.80;;;;;;5108736;28;20232;-84
2023/08/27 03:02:26;;;;;;;5.80;4.10;;;22.60;65.60;;;;;;5091461;28;20293;-84
2023/08/27 03:04:55;;;;;;;5.90;3.67;;;22.70;65.80;;;;;;5078495;28;20194;-84
2023/08/27 03:07:22;;;;;;;5.75;4.15;;;22.60;66.60;;;;;;5065261;28;20203;-84
2023/08/27 03:09:49;;;;;;;5.35;4.00;;;22.70;65.70;;;;;;5079196;28;20653;-84
2023/08/27 03:12:17;;;;;;;4.07;3.78;;;22.70;65.70;;;;;;5061869;28;20245;-85
2023/08/27 03:14:44;;;;;;;6.10;3.65;;;22.80;65.80;;;;;;5078801;28;20221;-83
2023/08/27 03:17:11;;;;;;;4.97;3.50;;;22.70;65.70;;;;;;5061792;28;20191;-84
2023/08/27 03:19:38;;;;;;;3.78;3.47;;;22.70;65.50;;;;;;5077706;28;20191;-84
2023/08/27 03:22:06;;;;;;;4.07;3.67;;;22.80;65.80;;;;;;5061154;28;20234;-84
2023/08/27 03:24:33;;;;;;;4.50;3.78;;;22.80;65.80;;;;;;5060753;28;20575;-84
2023/08/27 03:27:04;;;;;;;3.80;3.50;;;22.90;65.80;;;;;;5094931;28;20195;-84
2023/08/27 03:29:31;;;;;;;4.82;3.90;;;22.90;65.50;;;;;;5094349;28;20222;-84
2023/08/27 03:31:58;;;;;;;4.15;3.28;;;22.90;65.60;;;;;;5060926;28;20206;-84
2023/08/27 03:34:25;;;;;;;3.50;3.20;;;23.00;65.50;;;;;;5060374;28;20700;-84
2023/08/27 03:36:53;;;;;;;5.85;3.90;;;23.00;64.90;;;;;;5076586;28;20200;-84
2023/08/27 03:39:21;;;;;;;4.82;3.63;;;23.10;64.80;;;;;;5060390;28;20205;-84
2023/08/27 03:41:48;;;;;;;4.45;3.72;;;23.10;64.40;;;;;;5059963;28;20218;-84
2023/08/27 03:44:15;;;;;;;3.90;3.50;;;23.20;64.60;;;;;;5060412;28;20229;-84
2023/08/27 03:46:42;;;;;;;4.50;3.72;;;23.10;64.40;;;;;;5060039;28;20642;-83
2023/08/27 03:49:10;;;;;;;3.90;3.42;;;23.20;64.40;;;;;;5059282;28;20202;-83
2023/08/27 03:51:38;;;;;;;3.63;3.33;;;23.20;64.40;;;;;;5057298;28;20211;-83
2023/08/27 03:54:05;;;;;;;4.22;3.60;;;23.20;64.40;;;;;;5090393;28;20191;-83
2023/08/27 03:56:34;;;;;;;4.68;3.60;;;23.20;64.30;;;;;;5090772;28;20199;-83
2023/08/27 03:59:00;;;;;;;3.90;3.50;;;23.20;64.40;;;;;;5058405;28;20222;-84
2023/08/27 04:01:27;;;;;;;4.75;3.50;;;23.20;64.50;;;;;;5059402;28;20273;-84
2023/08/27 04:03:54;;;;;;;4.82;3.92;;;23.20;64.50;;;;;;5059674;28;20593;-84
2023/08/27 04:06:24;;;;;;;4.20;3.80;;;23.20;64.40;;;;;;5091323;22;20195;-85
2023/08/27 04:08:51;;;;;;;3.92;3.53;;;23.20;64.30;;;;;;5019077;28;20303;-86
2023/08/27 04:11:18;;;;;;;4.10;3.70;;;23.30;64.30;;;;;;5019533;28;20555;-84
2023/08/27 04:13:46;;;;;;;5.88;3.70;;;23.20;64.20;;;;;;5018552;28;20555;-84
2023/08/27 04:16:14;;;;;;;4.32;3.70;;;23.20;64.10;;;;;;5033960;28;20278;-84
2023/08/27 04:18:40;;;;;;;4.32;3.35;;;23.30;64.20;;;;;;5017130;28;20761;-84
2023/08/27 04:21:09;;;;;;;3.92;3.63;;;23.20;64.10;;;;;;5033493;28;20216;-83
2023/08/27 04:23:35;;;;;;;5.95;3.50;;;23.20;64.50;;;;;;5016976;28;20216;-83
2023/08/27 04:26:03;;;;;;;5.57;3.20;;;23.30;64.60;;;;;;5017410;28;20201;-83
2023/08/27 04:28:31;;;;;;;4.05;3.25;;;23.30;64.40;;;;;;5033712;28;20203;-82
2023/08/27 04:31:00;;;;;;;4.18;3.55;;;23.30;64.50;;;;;;5034004;28;20254;-83
2023/08/27 04:33:29;;;;;;;3.58;3.28;;;23.30;64.50;;;;;;5033531;28;20638;-82
2023/08/27 04:35:57;;;;;;;4.65;3.40;;;23.20;64.50;;;;;;5017014;28;20207;-83
2023/08/27 04:38:24;;;;;;;3.47;3.10;;;23.30;64.50;;;;;;5033497;28;20204;-83
2023/08/27 04:40:52;;;;;;;3.78;3.45;;;23.30;64.50;;;;;;5016388;28;20223;-84
2023/08/27 04:43:20;;;;;;;3.35;3.05;;;23.20;64.50;;;;;;5033137;28;20274;-83
2023/08/27 04:45:47;;;;;;;3.63;3.30;;;23.20;64.30;;;;;;5033267;28;20200;-83
2023/08/27 04:48:17;;;;;;;3.85;3.45;;;23.30;64.50;;;;;;5033333;28;20659;-83
2023/08/27 04:50:45;;;;;;;3.40;3.10;;;23.20;64.60;;;;;;5032982;28;20222;-82
2023/08/27 04:53:13;;;;;;;4.13;3.28;;;23.20;64.70;;;;;;5032823;28;20219;-82
2023/08/27 04:55:40;;;;;;;4.10;3.42;;;23.10;64.70;;;;;;5023096;28;20253;-82
2023/08/27 04:58:08;;;;;;;3.63;3.10;;;23.20;65.00;;;;;;5043166;28;20219;-83
2023/08/27 05:00:35;;;;;;;3.45;2.78;;;23.10;65.00;;;;;;5045483;28;20239;-83
2023/08/27 05:03:03;;;;;;;3.63;2.95;;;23.10;65.00;;;;;;5031611;28;20252;-84
2023/08/27 05:05:31;;;;;;;3.20;2.88;;;23.10;65.10;;;;;;5026866;28;20200;-84
2023/08/27 05:07:59;;;;;;;3.50;2.90;;;23.10;65.20;;;;;;5021923;28;20204;-84
2023/08/27 05:10:27;;;;;;;3.90;2.80;;;23.10;65.20;;;;;;5011532;28;20216;-84
2023/08/27 05:12:54;;;;;;;6.47;3.40;;;23.10;65.20;;;;;;5020032;28;20196;-83
2023/08/27 05:15:21;;;;;;;4.50;2.60;;;23.10;65.40;;;;;;5020220;28;20200;-83
2023/08/27 05:17:49;;;;;;;3.38;2.70;;;23.10;65.30;;;;;;5020218;28;20196;-84
2023/08/27 05:20:17;;;;;;;3.28;2.97;;;23.10;65.30;;;;;;5037824;28;20207;-83
2023/08/27 05:22:45;;;;;;;2.83;2.63;;;23.10;65.40;;;;;;5008377;28;20266;-82
2023/08/27 05:25:13;;;;;;;3.05;2.75;;;23.10;65.50;;;;;;5040275;28;20224;-83
2023/08/27 05:27:44;;;;;;;3.17;2.75;;;23.10;65.50;;;;;;5037616;28;20203;-83
2023/08/27 05:30:13;;;;;;;4.10;2.85;;;23.10;65.60;;;;;;5036605;28;20207;-83
2023/08/27 05:32:40;;;;;;;4.53;2.97;;;23.00;65.60;;;;;;5020371;28;20192;-83
2023/08/27 05:35:09;;;;;;;3.00;2.70;;;23.00;65.60;;;;;;5036502;28;20239;-83
2023/08/27 05:37:36;;;;;;;3.83;2.97;;;23.00;65.50;;;;;;5036844;28;20196;-83
2023/08/27 05:40:08;;;;;;;2.88;2.67;;;23.00;65.50;;;;;;5036510;28;20207;-83
2023/08/27 05:42:35;;;;;;;2.50;2.30;;;23.00;65.50;;;;;;5019534;28;20678;-83
2023/08/27 05:45:03;;;;;;;2.83;2.60;;;23.00;65.40;;;;;;5019214;28;20196;-83
2023/08/27 05:47:31;;;;;;;2.72;2.53;;;23.00;65.50;;;;;;5019395;28;20200;-83
2023/08/27 05:49:58;;;;;;;3.33;2.80;;;23.00;65.50;;;;;;5019449;28;20192;-83
2023/08/27 05:52:25;;;;;;;2.95;2.60;;;23.00;65.60;;;;;;5036013;28;20752;-83
2023/08/27 05:54:52;;;;;;;2.83;2.58;;;23.00;65.60;;;;;;5035544;28;20544;-84
2023/08/27 05:57:20;;;;;;;3.00;2.80;;;23.00;65.50;;;;;;5019126;28;20737;-84
2023/08/27 05:59:48;;;;;;;2.42;2.22;;;23.00;65.60;;;;;;5018965;28;20196;-83
2023/08/27 06:02:18;;;;;;;2.92;2.72;;;23.00;65.60;;;;;;5019324;28;20227;-83
2023/08/27 06:04:45;;;;;;;2.80;2.60;;;23.00;65.60;;;;;;5036229;28;20299;-83
2023/08/27 06:07:13;;;;;;;3.05;2.75;;;23.00;65.70;;;;;;5018999;28;20689;-83
2023/08/27 06:09:40;;;;;;;3.90;2.75;;;23.00;65.60;;;;;;5018784;28;20196;-83
2023/08/27 06:12:08;;;;;;;2.70;2.50;;;23.00;65.70;;;;;;5035571;28;20220;-83
2023/08/27 06:14:37;;;;;;;2.63;2.42;;;23.00;65.70;;;;;;5018912;28;20207;-83
2023/08/27 06:17:04;;;;;;;2.65;2.35;;;23.00;65.80;;;;;;5003800;28;20204;-83
2023/08/27 06:19:32;;;;;;;2.55;2.35;;;23.00;65.90;;;;;;5019244;28;20260;-83
2023/08/27 06:21:59;;;;;;;2.30;2.10;;;23.00;65.90;;;;;;5024118;28;20730;-83
2023/08/27 06:24:26;;;;;;;2.45;2.25;;;23.00;66.10;;;;;;5024666;28;20224;-83
2023/08/27 06:26:53;;;;;;;3.33;2.50;;;23.00;66.10;;;;;;5040090;28;20207;-83
2023/08/27 06:29:20;;;;;;;3.10;2.45;;;23.00;66.20;;;;;;5039424;28;20255;-83
2023/08/27 06:31:49;;;;;;;2.22;2.03;;;23.00;66.20;;;;;;5039348;28;20216;-84
2023/08/27 06:34:17;;;;;;;3.00;2.05;;;23.00;66.30;;;;;;5025475;28;20192;-83
2023/08/27 06:36:44;;;;;;;2.78;2.30;;;23.00;66.30;;;;;;5036585;28;20198;-82
2023/08/27 06:39:11;;;;;;;3.60;2.53;;;23.00;66.40;;;;;;5018444;28;20577;-82
2023/08/27 06:41:38;;;;;;;2.28;2.08;;;23.00;66.40;;;;;;5035315;28;20231;-82
2023/08/27 06:44:10;;;;;;;3.28;2.22;;;23.00;66.40;;;;;;5035046;28;20220;-83
2023/08/27 06:46:39;;;;;;;2.80;2.30;;;23.00;66.50;;;;;;5036028;28;20204;-82
2023/08/27 06:49:07;;;;;;;2.88;2.33;;;23.10;66.60;;;;;;5018880;28;20537;-82
2023/08/27 06:51:34;;;;;;;2.28;2.00;;;23.10;66.50;;;;;;5019231;28;20406;-82
2023/08/27 06:54:01;;;;;;;3.35;2.38;;;23.00;66.40;;;;;;5035138;28;20196;-82
2023/08/27 06:56:29;;;;;;;2.15;2.00;;;23.10;66.50;;;;;;5036045;28;20224;-82
2023/08/27 06:58:55;;;;;;;2.72;2.00;;;23.10;66.50;;;;;;5018624;28;20203;-82
2023/08/27 07:01:23;;;;;;;3.00;1.92;;;23.00;66.40;;;;;;5018910;28;20252;-83
2023/08/27 07:03:50;;;;;;;2.45;2.00;;;23.10;66.50;;;;;;5035199;28;20216;-83
2023/08/27 07:06:19;;;;;;;2.28;2.00;;;23.10;66.50;;;;;;5019143;28;20206;-82
2023/08/27 07:08:47;;;;;;;1.95;1.85;;;23.00;66.40;;;;;;5035997;28;20207;-82
2023/08/27 07:11:14;;;;;;;2.17;1.90;;;23.10;66.50;;;;;;5035501;28;20722;-82
2023/08/27 07:13:41;;;;;;;2.17;1.85;;;23.10;66.40;;;;;;5018852;28;20199;-82
2023/08/27 07:16:08;;;;;;;2.83;1.98;;;23.10;66.40;;;;;;5036104;28;20607;-83
2023/08/27 07:18:35;;;;;;;3.08;1.75;;;23.00;66.30;;;;;;5034910;28;20192;-83
2023/08/27 07:21:02;;;;;;;2.88;1.90;;;23.10;66.30;;;;;;5018828;28;20581;-83
2023/08/27 07:23:31;;;;;;;2.00;1.90;;;23.10;66.20;;;;;;5003108;28;20219;-84
2023/08/27 07:25:59;;;;;;;2.25;1.70;;;23.10;66.10;;;;;;5036174;28;20250;-84
2023/08/27 07:28:26;;;;;;;2.20;2.00;;;23.10;66.20;;;;;;5036215;28;20662;-84
2023/08/27 07:30:53;;;;;;;1.92;1.73;;;23.10;66.10;;;;;;5019444;28;20559;-83
2023/08/27 07:33:20;;;;;;;1.73;1.60;;;23.20;66.10;;;;;;5036296;28;20210;-83
2023/08/27 07:35:47;;;;;;;1.85;1.70;;;23.20;66.10;;;;;;5018796;28;20250;-83
2023/08/27 07:38:15;;;;;;;1.70;1.60;;;23.20;66.00;;;;;;5035624;28;20572;-83
2023/08/27 07:40:43;;;;;;;2.53;1.70;;;23.20;66.00;;;;;;5034531;28;20224;-83
2023/08/27 07:43:10;;;;;;;3.15;1.88;;;23.20;66.10;;;;;;5018990;28;20204;-83
2023/08/27 07:45:38;;;;;;;1.77;1.60;;;23.20;66.10;;;;;;5018368;28;20231;-84
2023/08/27 07:48:06;;;;;;;3.53;1.60;;;23.20;66.00;;;;;;5017901;28;20196;-84
2023/08/27 07:50:34;;;;;;;2.17;1.33;;;23.20;66.00;;;;;;5018470;28;20216;-84
2023/08/27 07:53:02;;;;;;;2.53;1.80;;;23.20;65.90;;;;;;5034587;28;20200;-84
2023/08/27 07:55:31;;;;;;;1.80;1.40;;;23.20;65.90;;;;;;5017954;28;20326;-84
2023/08/27 07:58:00;;;;;;;1.75;1.65;;;23.20;65.90;;;;;;5035530;28;20196;-84
2023/08/27 08:00:28;;;;;;;1.60;1.50;;;23.20;65.90;;;;;;5034543;28;20246;-83
2023/08/27 08:02:55;;;;;;;2.85;1.50;;;23.30;66.20;;;;;;5033815;28;20207;-83
2023/08/27 08:05:22;;;;;;;1.52;1.35;;;23.30;66.20;;;;;;5033205;28;20212;-83
2023/08/27 08:07:49;;;;;;;1.73;1.52;;;23.30;66.20;;;;;;5033003;28;20651;-83
2023/08/27 08:10:16;;;;;;;1.88;1.67;;;23.30;66.10;;;;;;5033164;28;20205;-82
2023/08/27 08:12:43;;;;;;;1.52;1.42;;;23.40;65.90;;;;;;5017631;28;20565;-82
2023/08/27 08:15:12;;;;;;;2.00;1.70;;;23.40;65.90;;;;;;5001584;28;20227;-82
2023/08/27 08:17:40;;;;;;;2.15;1.50;;;23.40;65.70;;;;;;5028312;28;20200;-82
2023/08/27 08:20:08;;;;;;;2.15;1.48;;;23.50;65.70;;;;;;5013500;28;20205;-82
2023/08/27 08:22:35;;;;;;;1.65;1.25;;;23.50;65.60;;;;;;5013379;28;20200;-82
2023/08/27 08:25:03;;;;;;;1.60;1.48;;;23.50;65.40;;;;;;4997296;28;20275;-82
2023/08/27 08:27:30;;;;;;;2.40;1.73;;;23.60;65.20;;;;;;5014233;28;20196;-82
2023/08/27 08:29:57;;;;;;;1.40;1.30;;;23.60;65.10;;;;;;5014857;28;20208;-82
2023/08/27 08:32:25;;;;;;;1.48;1.38;;;23.60;65.20;;;;;;4997704;28;20223;-81
2023/08/27 08:34:54;;;;;;;1.42;1.33;;;23.60;65.40;;;;;;5013862;28;20712;-81
2023/08/27 08:37:21;;;;;;;6.82;1.50;;;23.60;65.80;;;;;;4981001;28;20268;-82
2023/08/27 08:39:48;;;;;;;1.33;1.23;;;23.60;66.10;;;;;;5013675;28;20274;-81
2023/08/27 08:42:27;;;;;;;3.20;1.60;;;23.50;66.00;;;;;;5015350;28;20240;-81
2023/08/27 08:44:57;;;;;;;1.67;1.30;;;23.50;66.40;;;;;;5020506;28;20220;-82
2023/08/27 08:47:26;;;;;;;3.45;1.40;;;23.60;66.10;;;;;;5017651;28;20552;-82
2023/08/27 08:49:55;;;;;;;2.03;1.30;;;23.60;66.40;;;;;;5001215;28;20197;-82
2023/08/27 08:52:23;;;;;;;68.78;36.60;;;23.60;66.30;;;;;;5017288;28;20217;-82
2023/08/27 08:54:52;;;;;;;125.85;88.60;;;23.60;66.20;;;;;;5001135;28;20701;-82
2023/08/27 08:57:18;;;;;;;102.60;75.63;;;23.60;66.50;;;;;;5001155;28;20255;-82
2023/08/27 08:59:46;;;;;;;95.75;76.80;;;23.70;67.10;;;;;;5001794;28;20211;-82
2023/08/27 09:02:12;;;;;;;88.07;64.78;;;23.60;67.70;;;;;;4984480;28;20270;-82
2023/08/27 09:04:41;;;;;;;70.55;50.03;;;23.70;67.90;;;;;;5016769;28;20212;-82
2023/08/27 09:07:08;;;;;;;59.78;42.15;;;23.80;67.70;;;;;;5016698;28;20617;-81
2023/08/27 09:09:35;;;;;;;42.40;33.40;;;23.80;67.40;;;;;;5000568;28;20203;-82
2023/08/27 09:12:02;;;;;;;40.97;30.75;;;23.80;66.90;;;;;;5000601;28;20266;-82
2023/08/27 09:14:29;;;;;;;29.08;22.25;;;23.80;67.00;;;;;;5000771;28;20204;-82
2023/08/27 09:16:56;;;;;;;28.75;21.70;;;23.90;67.00;;;;;;5000924;28;20207;-82
2023/08/27 09:19:24;;;;;;;27.02;19.48;;;23.90;66.90;;;;;;5005382;28;20233;-82
2023/08/27 09:21:52;;;;;;;17.55;13.57;;;24.00;66.60;;;;;;5030632;28;20251;-82
2023/08/27 09:24:19;;;;;;;21.90;13.05;;;24.00;66.40;;;;;;5035844;28;20220;-82
2023/08/27 09:26:46;;;;;;;14.25;10.60;;;24.00;66.40;;;;;;5011590;28;20197;-82
2023/08/27 09:29:13;;;;;;;11.77;9.00;;;24.00;66.10;;;;;;5008768;28;20260;-82
2023/08/27 09:31:41;;;;;;;13.82;8.30;;;24.00;65.90;;;;;;5022794;28;20228;-82
2023/08/27 09:34:08;;;;;;;9.85;6.50;;;24.00;65.80;;;;;;5006380;28;20201;-82
2023/08/27 09:36:37;;;;;;;9.93;6.68;;;24.00;65.50;;;;;;5007065;28;20268;-81
2023/08/27 09:39:09;;;;;;;6.75;5.18;;;24.00;66.30;;;;;;5023216;28;20659;-81
2023/08/27 09:41:40;;;;;;;7.13;5.47;;;24.10;65.60;;;;;;5020773;28;20271;-82
2023/08/27 09:44:08;;;;;;;5.95;4.68;;;24.10;65.50;;;;;;5018181;28;20584;-82
2023/08/27 09:46:35;;;;;;;6.10;4.40;;;24.10;65.30;;;;;;5000572;28;20197;-82
2023/08/27 09:49:04;;;;;;;5.18;4.40;;;24.20;65.00;;;;;;5000414;28;20201;-81
2023/08/27 09:51:32;;;;;;;5.10;3.83;;;24.20;64.90;;;;;;5016501;28;20275;-82
2023/08/27 09:53:59;;;;;;;4.97;3.60;;;24.30;64.80;;;;;;5000333;28;20534;-81
2023/08/27 09:56:28;;;;;;;3.97;3.13;;;24.30;64.60;;;;;;4984267;28;20192;-82
2023/08/27 09:58:55;;;;;;;3.50;2.95;;;24.30;64.30;;;;;;5000599;28;20203;-82
2023/08/27 10:01:25;;;;;;;3.47;2.47;;;24.50;64.00;;;;;;5016124;28;20703;-82
2023/08/27 10:03:54;;;;;;;3.45;2.60;;;24.50;63.30;;;;;;5016383;28;20283;-83
2023/08/27 10:08:55;;;;;;;3.75;1.70;;;24.60;62.90;;;;;;5165625;22;20284;-69
2023/08/27 10:11:23;;;;;;;2.42;1.90;;;24.60;62.80;;;;;;5038094;28;20207;-69
2023/08/27 10:13:51;;;;;;;2.75;2.20;;;24.60;62.60;;;;;;5038108;28;20223;-67
2023/08/27 10:16:18;;;;;;;2.05;1.52;;;24.60;62.30;;;;;;5038319;28;20200;-68
2023/08/27 10:18:45;;;;;;;3.20;2.03;;;24.60;62.20;;;;;;5055984;28;20279;-66
2023/08/27 10:21:12;;;;;;;2.72;1.80;;;24.60;62.80;;;;;;5038027;28;20628;-68
2023/08/27 10:23:40;;;;;;;2.38;1.80;;;24.60;62.70;;;;;;5038502;28;20272;-67
2023/08/27 10:26:07;;;;;;;3.15;1.60;;;24.60;62.80;;;;;;5037800;28;20724;-67
2023/08/27 10:28:35;;;;;;;2.60;1.80;;;24.60;62.70;;;;;;5038009;28;20554;-67
2023/08/27 10:31:03;;;;;;;2.40;1.63;;;24.60;63.10;;;;;;5037824;28;20202;-67
2023/08/27 10:33:30;;;;;;;1.92;1.65;;;24.60;63.10;;;;;;5037397;28;20641;-67
2023/08/27 10:35:59;;;;;;;1.80;1.63;;;24.60;63.10;;;;;;5055069;28;20195;-67
2023/08/27 10:38:26;;;;;;;2.38;1.70;;;24.60;63.40;;;;;;5037295;28;20203;-67
2023/08/27 10:40:53;;;;;;;1.85;1.60;;;24.60;63.40;;;;;;5087819;22;20233;-84
2023/08/27 10:43:21;;;;;;;5.18;1.85;;;24.60;63.60;;;;;;5004907;28;20224;-85
2023/08/27 10:45:48;;;;;;;3.30;1.70;;;24.70;62.80;;;;;;5004447;28;20216;-85
2023/08/27 10:48:26;;;;;;;1.50;1.40;;;24.70;62.60;;;;;;5002650;28;20727;-85
2023/08/27 10:50:55;;;;;;;1.60;1.50;;;24.70;62.10;;;;;;5001082;28;20224;-85
2023/08/27 10:53:22;;;;;;;1.40;1.30;;;24.60;61.40;;;;;;5000859;28;20247;-85
2023/08/27 10:55:51;;;;;;;1.55;1.42;;;24.50;60.20;;;;;;5003009;28;20197;-85
2023/08/27 10:58:18;;;;;;;1.90;1.70;;;24.50;60.70;;;;;;5004981;28;20254;-85
2023/08/27 11:00:58;;;;;;;3.10;1.80;;;24.50;60.90;;;;;;5003025;28;20224;-85
2023/08/27 11:03:27;;;;;;;1.90;1.55;;;24.50;60.90;;;;;;4999061;28;20214;-85
2023/08/27 11:06:12;;;;;;;2.00;1.50;;;24.50;60.00;;;;;;4997453;28;20227;-85
2023/08/27 11:08:41;;;;;;;1.73;1.45;;;24.50;59.40;;;;;;5014732;28;20728;-85
2023/08/27 11:11:14;;;;;;;2.15;1.50;;;24.50;59.20;;;;;;4998702;28;20224;-82
2023/08/27 11:13:44;;;;;;;1.77;1.58;;;24.50;59.00;;;;;;4998559;28;20295;-83
2023/08/27 11:16:13;;;;;;;1.85;1.50;;;24.40;59.50;;;;;;5004161;28;20265;-83
2023/08/27 11:18:47;;;;;;;2.17;1.65;;;24.40;60.00;;;;;;5007581;28;20211;-82
2023/08/27 11:21:22;;;;;;;2.20;1.60;;;24.40;59.60;;;;;;4999937;28;20220;-83
2023/08/27 11:24:17;;;;;;;1.60;1.50;;;24.40;59.20;;;;;;5000500;28;20203;-83
2023/08/27 11:26:46;;;;;;;1.80;1.40;;;24.40;59.00;;;;;;4999646;28;20196;-83
2023/08/27 11:29:14;;;;;;;1.67;1.58;;;24.40;58.80;;;;;;5000124;28;20269;-83
2023/08/27 11:31:41;;;;;;;2.58;1.60;;;24.50;58.80;;;;;;4999632;28;20259;-83
2023/08/27 11:34:11;;;;;;;1.60;1.50;;;24.40;58.70;;;;;;4999427;28;20192;-83
2023/08/27 11:36:39;;;;;;;2.72;1.67;;;24.50;58.40;;;;;;4999023;28;20204;-84
2023/08/27 11:39:07;;;;;;;2.42;1.52;;;24.50;58.30;;;;;;4999908;28;20648;-86
2023/08/27 11:41:36;;;;;;;1.60;1.50;;;24.50;58.20;;;;;;5000674;28;20292;-85
2023/08/27 11:44:03;;;;;;;1.77;1.60;;;24.50;58.10;;;;;;5000406;28;20196;-85
2023/08/27 11:46:31;;;;;;;1.60;1.50;;;24.50;59.20;;;;;;5000437;28;20240;-84
2023/08/27 11:48:58;;;;;;;2.08;1.60;;;24.50;59.20;;;;;;5000063;28;20208;-84
2023/08/27 11:51:27;;;;;;;1.77;1.60;;;24.40;57.50;;;;;;4998660;28;20224;-84
2023/08/27 11:53:54;;;;;;;2.33;1.73;;;24.30;57.60;;;;;;4998623;28;20201;-84
2023/08/27 11:56:23;;;;;;;1.98;1.48;;;24.20;58.00;;;;;;4998261;28;20288;-84
2023/08/27 11:58:51;;;;;;;2.90;1.60;;;24.20;59.70;;;;;;5013724;28;20236;-84
2023/08/27 12:01:18;;;;;;;2.35;1.80;;;24.10;59.00;;;;;;4998319;28;20231;-84
2023/08/27 12:03:47;;;;;;;2.88;1.80;;;24.00;58.30;;;;;;4998678;28;20552;-85
2023/08/27 12:06:18;;;;;;;1.52;1.42;;;24.00;58.90;;;;;;4998441;28;20220;-84
2023/08/27 12:08:50;;;;;;;1.73;1.50;;;24.10;59.20;;;;;;4998640;28;20205;-85
2023/08/27 12:11:18;;;;;;;1.58;1.20;;;24.20;60.30;;;;;;4997976;28;20711;-85
2023/08/27 12:13:47;;;;;;;1.42;1.30;;;24.20;60.50;;;;;;4997463;28;20199;-84
2023/08/27 12:16:15;;;;;;;1.75;1.58;;;24.30;60.60;;;;;;4997482;28;20196;-83
2023/08/27 12:18:46;;;;;;;1.60;1.50;;;24.30;60.40;;;;;;4996955;28;20192;-82
2023/08/27 12:21:13;;;;;;;1.65;1.50;;;24.40;60.10;;;;;;4997310;28;20224;-83
2023/08/27 12:23:40;;;;;;;1.65;1.40;;;24.50;60.20;;;;;;4997525;28;20247;-87
2023/08/27 12:26:09;;;;;;;1.88;1.65;;;24.50;60.10;;;;;;4997811;28;20224;-86
2023/08/27 12:28:36;;;;;;;1.52;1.42;;;24.60;60.10;;;;;;5014054;28;20211;-86
2023/08/27 12:31:03;;;;;;;1.80;1.42;;;24.60;60.10;;;;;;4998218;28;20622;-85
2023/08/27 12:33:37;;;;;;;1.40;1.30;;;24.60;60.90;;;;;;4997746;28;20196;-88
2023/08/27 12:36:07;;;;;;;1.85;1.55;;;24.60;60.20;;;;;;4997850;28;20197;-88
2023/08/27 12:38:35;;;;;;;2.05;1.33;;;24.70;60.20;;;;;;4997211;28;20299;-88
2023/08/27 12:41:02;;;;;;;1.80;1.50;;;24.70;60.30;;;;;;4997193;28;20238;-88
2023/08/27 12:43:31;;;;;;;4.40;1.40;;;24.70;60.30;;;;;;4997069;28;20215;-87
2023/08/27 12:45:58;;;;;;;2.55;1.55;;;24.70;60.30;;;;;;4999735;28;20224;-86
2023/08/27 12:48:25;;;;;;;1.77;1.67;;;24.70;60.30;;;;;;4999707;28;20211;-85
2023/08/27 12:50:52;;;;;;;1.55;1.45;;;24.70;60.20;;;;;;4984972;28;20658;-87